Time;durP1;ratioP1;P1;durP2;ratioP2;P2;SDS_P1;SDS_P2;PMS_P1;PMS_P2;Temp;Humidity;BMP_temperature;BMP_pressure;BME280_temperature;BME280_humidity;BME280_pressure;Samples;Min_cycle;Max_cycle;Signal;HPM_P1;HPM_P2
2022/06/24 00:00:42;;;;;;;2.63;2.30;;;22.70;93.30;;;;;;5073083;28;20079;-55
2022/06/24 00:03:19;;;;;;;3.38;1.80;;;22.70;92.50;;;;;;5073575;28;20143;-55
2022/06/24 00:05:47;;;;;;;2.10;1.98;;;22.60;92.20;;;;;;5073209;28;20090;-55
2022/06/24 00:08:13;;;;;;;2.72;1.90;;;22.60;92.00;;;;;;5073104;28;20036;-55
2022/06/24 00:10:39;;;;;;;2.38;1.80;;;22.60;92.20;;;;;;5073212;28;20393;-55
2022/06/24 00:13:06;;;;;;;6.22;2.13;;;22.50;92.40;;;;;;5072921;28;20041;-55
2022/06/24 00:15:34;;;;;;;8.00;2.67;;;22.40;92.40;;;;;;5072503;28;20036;-55
2022/06/24 00:18:19;;;;;;;4.32;1.92;;;22.30;92.40;;;;;;5073067;28;20115;-54
2022/06/24 00:20:50;;;;;;;4.30;1.92;;;22.30;93.50;;;;;;5073079;28;20043;-54
2022/06/24 00:23:21;;;;;;;3.28;1.75;;;22.30;93.80;;;;;;5072714;28;20079;-55
2022/06/24 00:25:47;;;;;;;4.20;2.10;;;22.10;94.20;;;;;;5072726;28;20514;-55
2022/06/24 00:28:14;;;;;;;3.55;2.03;;;22.10;93.60;;;;;;5072711;28;20040;-53
2022/06/24 00:30:52;;;;;;;2.85;2.30;;;22.00;93.60;;;;;;5072233;28;20491;-53
2022/06/24 00:33:19;;;;;;;2.45;2.20;;;22.00;93.90;;;;;;5072647;28;20053;-55
2022/06/24 00:35:56;;;;;;;7.20;2.38;;;22.00;94.40;;;;;;5072438;28;20033;-55
2022/06/24 00:38:22;;;;;;;3.80;2.28;;;22.00;95.50;;;;;;5072722;28;20052;-55
2022/06/24 00:40:51;;;;;;;3.55;2.42;;;22.00;95.30;;;;;;5072536;28;20044;-55
2022/06/24 00:43:41;;;;;;;2.83;2.10;;;22.10;95.60;;;;;;5072584;28;20083;-54
2022/06/24 00:46:12;;;;;;;3.55;1.95;;;22.00;95.90;;;;;;5072537;28;20431;-55
2022/06/24 00:48:43;;;;;;;2.65;1.88;;;22.00;95.70;;;;;;5072457;28;20549;-55
2022/06/24 00:51:09;;;;;;;4.35;2.30;;;22.00;95.50;;;;;;5072523;28;20417;-55
2022/06/24 00:53:47;;;;;;;4.45;2.03;;;22.00;95.80;;;;;;5072515;28;20032;-55
2022/06/24 00:56:15;;;;;;;4.60;2.20;;;21.80;95.80;;;;;;5071295;28;20056;-55
2022/06/24 00:58:49;;;;;;;;;;;21.80;95.50;;;;;;5072700;28;20043;-55
2022/06/24 01:01:15;;;;;;;4.00;2.20;;;21.80;95.90;;;;;;5072034;28;20445;-56
2022/06/24 01:03:42;;;;;;;2.95;2.08;;;21.70;95.70;;;;;;5072326;28;20128;-55
2022/06/24 01:06:09;;;;;;;6.00;2.22;;;21.80;95.80;;;;;;5072456;28;20489;-55
2022/06/24 01:08:35;;;;;;;4.60;2.22;;;21.60;95.90;;;;;;5072575;28;20490;-56
2022/06/24 01:11:01;;;;;;;4.15;2.30;;;21.40;95.90;;;;;;5072522;28;20084;-57
2022/06/24 01:13:27;;;;;;;4.68;2.42;;;21.30;96.10;;;;;;5072277;28;20040;-57
2022/06/24 01:15:53;;;;;;;6.03;2.60;;;21.10;96.30;;;;;;5072166;28;20613;-55
2022/06/24 01:18:19;;;;;;;5.43;2.42;;;20.90;96.60;;;;;;5072509;28;20040;-57
2022/06/24 01:20:44;;;;;;;8.20;3.35;;;20.80;96.70;;;;;;5071169;28;20052;-55
2022/06/24 01:23:10;;;;;;;6.13;2.53;;;20.70;97.00;;;;;;5071668;28;20040;-56
2022/06/24 01:25:36;;;;;;;9.27;3.30;;;20.70;97.10;;;;;;5071936;28;20054;-56
2022/06/24 01:28:02;;;;;;;5.70;2.72;;;20.70;97.40;;;;;;5071708;28;20041;-56
2022/06/24 01:30:28;;;;;;;10.13;2.50;;;20.60;97.20;;;;;;5071664;28;20445;-56
2022/06/24 01:32:54;;;;;;;7.15;3.17;;;20.70;97.00;;;;;;5072209;28;20043;-56
2022/06/24 01:35:20;;;;;;;4.45;2.50;;;20.60;97.10;;;;;;5071808;28;20395;-55
2022/06/24 01:37:46;;;;;;;6.47;2.67;;;20.70;97.20;;;;;;5071823;28;20051;-54
2022/06/24 01:40:12;;;;;;;6.75;2.97;;;20.70;97.30;;;;;;5071703;28;20040;-56
2022/06/24 01:42:37;;;;;;;7.63;2.70;;;20.60;97.30;;;;;;5072013;28;20040;-57
2022/06/24 01:45:04;;;;;;;16.33;3.53;;;20.70;97.50;;;;;;5071567;28;20094;-56
2022/06/24 01:47:30;;;;;;;8.75;3.10;;;20.70;97.10;;;;;;5071841;28;20147;-56
2022/06/24 01:49:55;;;;;;;13.40;3.40;;;20.70;96.50;;;;;;5070625;28;20088;-56
2022/06/24 01:52:21;;;;;;;7.35;2.92;;;20.70;96.70;;;;;;5071662;28;20394;-55
2022/06/24 01:54:46;;;;;;;4.88;2.65;;;20.80;96.50;;;;;;5071960;28;20052;-55
2022/06/24 01:57:12;;;;;;;8.95;3.05;;;20.80;96.50;;;;;;5071714;28;20033;-55
2022/06/24 01:59:38;;;;;;;5.85;2.50;;;20.80;96.80;;;;;;5070279;28;20059;-56
2022/06/24 02:02:03;;;;;;;4.25;2.63;;;20.80;97.00;;;;;;5070474;28;20436;-55
2022/06/24 02:04:29;;;;;;;6.07;2.78;;;20.80;97.20;;;;;;5071502;28;20505;-55
2022/06/24 02:06:55;;;;;;;6.10;2.63;;;20.80;97.40;;;;;;5071575;28;20066;-55
2022/06/24 02:09:20;;;;;;;5.47;2.80;;;20.80;97.40;;;;;;5071535;28;20039;-55
2022/06/24 02:14:31;;;;;;;9.48;2.83;;;20.60;97.60;;;;;;5073994;28;20052;-55
2022/06/24 02:16:57;;;;;;;6.15;2.75;;;20.60;98.20;;;;;;5075112;28;20036;-56
2022/06/24 02:19:23;;;;;;;4.10;2.60;;;20.60;98.00;;;;;;5075201;28;20142;-54
2022/06/24 02:21:49;;;;;;;12.57;2.63;;;20.60;98.00;;;;;;5075303;28;20115;-56
2022/06/24 02:24:15;;;;;;;5.07;3.10;;;20.60;98.00;;;;;;5074719;28;20039;-56
2022/06/24 02:26:44;;;;;;;5.20;2.75;;;20.50;97.40;;;;;;5074800;28;20036;-55
2022/06/24 02:29:10;;;;;;;9.35;3.47;;;20.50;97.20;;;;;;5074542;28;20049;-55
2022/06/24 02:31:37;;;;;;;4.15;3.13;;;20.50;97.60;;;;;;5074723;28;20483;-55
2022/06/24 02:34:03;;;;;;;5.32;3.13;;;20.60;97.60;;;;;;5074911;28;20036;-56
2022/06/24 02:36:29;;;;;;;3.78;2.55;;;20.60;97.50;;;;;;5074883;28;20055;-55
2022/06/24 02:38:54;;;;;;;8.85;2.83;;;20.60;97.60;;;;;;5074674;28;20043;-55
2022/06/24 02:41:20;;;;;;;4.50;2.88;;;20.60;97.10;;;;;;5074850;28;20122;-56
2022/06/24 02:43:45;;;;;;;5.03;2.45;;;20.50;96.90;;;;;;5074710;28;20041;-56
2022/06/24 02:46:13;;;;;;;3.35;2.60;;;20.50;97.10;;;;;;5073589;28;20110;-55
2022/06/24 02:48:41;;;;;;;6.68;3.50;;;20.50;96.70;;;;;;5074884;28;20394;-55
2022/06/24 02:51:09;;;;;;;5.10;2.63;;;20.50;97.10;;;;;;5074394;28;20063;-56
2022/06/24 02:53:35;;;;;;;;;;;20.50;97.10;;;;;;5074972;28;20542;-55
2022/06/24 02:56:07;;;;;;;4.68;2.40;;;20.40;96.90;;;;;;5074380;28;19920;-55
2022/06/24 02:58:33;;;;;;;3.20;2.47;;;20.50;97.10;;;;;;5074714;28;20383;-56
2022/06/24 03:01:00;;;;;;;3.15;2.40;;;20.40;96.80;;;;;;5074354;28;20052;-55
2022/06/24 03:03:26;;;;;;;4.80;2.83;;;20.40;97.30;;;;;;5074359;28;20044;-56
2022/06/24 03:05:52;;;;;;;4.32;2.33;;;20.40;96.90;;;;;;5074418;28;20124;-55
2022/06/24 03:08:20;;;;;;;4.25;2.63;;;20.40;97.00;;;;;;5074256;28;20116;-55
2022/06/24 03:10:47;;;;;;;3.95;2.55;;;20.40;97.60;;;;;;5073971;28;20386;-55
2022/06/24 03:13:13;;;;;;;3.72;2.35;;;20.40;98.90;;;;;;5074225;28;20056;-56
2022/06/24 03:15:40;;;;;;;2.78;2.58;;;20.40;98.30;;;;;;5074445;28;20045;-55
2022/06/24 03:18:05;;;;;;;5.68;2.58;;;20.30;97.50;;;;;;5074224;28;20076;-54
2022/06/24 03:20:31;;;;;;;5.35;2.88;;;20.40;97.00;;;;;;5074462;28;20071;-55
2022/06/24 03:22:57;;;;;;;7.82;2.92;;;20.30;96.90;;;;;;5074390;28;20096;-55
2022/06/24 03:25:23;;;;;;;5.72;2.83;;;20.30;96.70;;;;;;5072940;28;20047;-55
2022/06/24 03:27:49;;;;;;;3.08;2.10;;;20.30;96.60;;;;;;5074096;28;20040;-55
2022/06/24 03:30:14;;;;;;;2.92;2.60;;;20.40;96.80;;;;;;5073343;28;20053;-54
2022/06/24 03:32:41;;;;;;;4.55;2.85;;;20.40;96.60;;;;;;5072310;28;20123;-54
2022/06/24 03:35:08;;;;;;;4.32;2.78;;;20.40;96.70;;;;;;5072280;28;20059;-54
2022/06/24 03:37:34;;;;;;;12.65;3.17;;;20.50;96.60;;;;;;5072595;28;20034;-56
2022/06/24 03:40:01;;;;;;;5.68;3.05;;;20.50;96.50;;;;;;5073338;28;20498;-54
2022/06/24 03:42:27;;;;;;;3.10;2.63;;;20.60;96.70;;;;;;5072521;28;20068;-55
2022/06/24 03:44:53;;;;;;;7.18;3.60;;;20.60;96.40;;;;;;5073349;28;20063;-54
2022/06/24 03:47:19;;;;;;;5.90;2.80;;;20.60;96.40;;;;;;5073511;28;20119;-54
2022/06/24 03:49:44;;;;;;;4.47;2.65;;;20.60;96.70;;;;;;5073572;28;20047;-55
2022/06/24 03:52:10;;;;;;;8.30;3.50;;;20.60;96.50;;;;;;5073187;28;20032;-55
2022/06/24 03:54:36;;;;;;;6.03;3.30;;;20.60;96.70;;;;;;5071867;28;20040;-55
2022/06/24 03:57:02;;;;;;;6.43;2.80;;;20.60;96.20;;;;;;5073269;28;20040;-55
2022/06/24 03:59:28;;;;;;;5.07;3.13;;;20.60;96.70;;;;;;5073154;28;20115;-54
2022/06/24 04:01:56;;;;;;;7.07;3.13;;;20.50;96.90;;;;;;5073021;28;20037;-55
2022/06/24 04:04:23;;;;;;;3.80;2.50;;;20.50;96.70;;;;;;5071946;28;20044;-54
2022/06/24 04:06:49;;;;;;;5.50;3.30;;;20.50;97.00;;;;;;5073256;28;20040;-54
2022/06/24 04:09:15;;;;;;;8.77;3.55;;;20.40;96.70;;;;;;5072979;28;20036;-55
2022/06/24 04:11:41;;;;;;;4.55;3.28;;;20.40;97.00;;;;;;5072750;28;20094;-55
2022/06/24 04:14:06;;;;;;;3.08;2.70;;;20.40;96.90;;;;;;5073121;28;20051;-56
2022/06/24 04:16:32;;;;;;;8.60;3.63;;;20.30;97.20;;;;;;5073321;28;20064;-55
2022/06/24 04:18:58;;;;;;;9.57;3.47;;;20.30;97.20;;;;;;5072914;28;20546;-55
2022/06/24 04:21:23;;;;;;;4.63;3.20;;;20.30;97.40;;;;;;5072273;28;20040;-56
2022/06/24 04:23:49;;;;;;;3.88;2.97;;;20.40;97.50;;;;;;5072112;28;20040;-56
2022/06/24 04:26:17;;;;;;;4.68;2.92;;;20.40;97.70;;;;;;5072935;28;20039;-54
2022/06/24 04:28:42;;;;;;;5.93;3.33;;;20.40;98.00;;;;;;5072540;28;20071;-55
2022/06/24 04:31:08;;;;;;;5.72;3.08;;;20.50;97.90;;;;;;5072397;28;20048;-55
2022/06/24 04:33:34;;;;;;;4.45;2.92;;;20.50;98.00;;;;;;5071446;28;20049;-55
2022/06/24 04:35:59;;;;;;;5.30;2.75;;;20.50;98.10;;;;;;5072044;28;20036;-56
2022/06/24 04:38:25;;;;;;;5.10;3.25;;;20.60;98.20;;;;;;5072600;28;20486;-55
2022/06/24 04:40:51;;;;;;;5.15;2.90;;;20.70;97.90;;;;;;5072066;28;20039;-55
2022/06/24 04:43:17;;;;;;;4.65;2.65;;;20.70;98.00;;;;;;5072616;28;20119;-54
2022/06/24 04:45:46;;;;;;;12.63;3.80;;;20.80;98.20;;;;;;5072557;28;20040;-56
2022/06/24 04:48:13;;;;;;;;;;;20.90;98.60;;;;;;5072744;28;20127;-56
2022/06/24 04:50:39;;;;;;;10.55;3.65;;;20.80;98.30;;;;;;5072386;28;19920;-55
2022/06/24 04:53:04;;;;;;;7.07;3.33;;;20.90;98.40;;;;;;5072338;28;20029;-56
2022/06/24 04:55:30;;;;;;;5.22;3.25;;;21.00;98.20;;;;;;5072495;28;20479;-55
2022/06/24 04:57:56;;;;;;;4.65;3.30;;;21.10;98.80;;;;;;5072233;28;20479;-55
2022/06/24 05:00:22;;;;;;;8.18;3.40;;;21.20;98.70;;;;;;5072324;28;20043;-55
2022/06/24 05:02:48;;;;;;;5.05;2.90;;;21.20;98.80;;;;;;5072038;28;20044;-55
2022/06/24 05:05:14;;;;;;;7.20;3.85;;;21.30;99.10;;;;;;5072142;28;20044;-55
2022/06/24 05:07:40;;;;;;;4.57;3.70;;;21.40;99.10;;;;;;5072443;28;20047;-55
2022/06/24 05:10:06;;;;;;;4.03;3.08;;;21.30;99.20;;;;;;5072139;28;20041;-55
2022/06/24 05:12:33;;;;;;;3.95;3.00;;;21.30;99.30;;;;;;5072461;28;20381;-55
2022/06/24 05:14:59;;;;;;;4.32;3.10;;;21.30;99.50;;;;;;5070366;28;20083;-56
2022/06/24 05:17:26;;;;;;;8.90;3.15;;;21.30;99.50;;;;;;5072765;28;20036;-55
2022/06/24 05:19:52;;;;;;;7.07;3.38;;;21.30;99.60;;;;;;5072255;28;20119;-55
2022/06/24 05:22:18;;;;;;;4.55;2.92;;;21.30;99.40;;;;;;5072191;28;20040;-55
2022/06/24 05:24:43;;;;;;;8.73;3.67;;;21.30;99.90;;;;;;5072109;28;20040;-55
2022/06/24 05:27:09;;;;;;;6.85;3.22;;;21.30;99.70;;;;;;5071769;28;20044;-55
2022/06/24 05:29:35;;;;;;;4.22;2.72;;;21.30;99.90;;;;;;5071720;28;20064;-55
2022/06/24 05:32:00;;;;;;;9.43;3.90;;;21.40;99.90;;;;;;5071626;28;20048;-56
2022/06/24 05:34:26;;;;;;;4.78;3.42;;;21.40;99.80;;;;;;5071692;28;20037;-54
2022/06/24 05:36:52;;;;;;;8.38;3.58;;;21.40;99.90;;;;;;5071920;28;20044;-54
2022/06/24 05:39:17;;;;;;;8.90;3.83;;;21.50;99.70;;;;;;5072224;28;20047;-55
2022/06/24 05:41:43;;;;;;;4.63;3.60;;;21.60;99.60;;;;;;5071874;28;20035;-55
2022/06/24 05:44:10;;;;;;;6.20;4.50;;;21.60;99.60;;;;;;5071902;28;20043;-54
2022/06/24 05:46:35;;;;;;;7.32;4.82;;;21.70;99.70;;;;;;5071661;28;20032;-54
2022/06/24 05:49:01;;;;;;;6.78;4.10;;;21.60;99.90;;;;;;5073755;28;20089;-54
2022/06/24 05:51:28;;;;;;;12.68;6.15;;;21.70;99.90;;;;;;5075603;28;20491;-54
2022/06/24 05:56:38;;;;;;;11.15;5.63;;;21.60;99.90;;;;;;5075988;28;20462;-55
2022/06/24 05:59:04;;;;;;;12.07;6.32;;;21.60;99.90;;;;;;5075971;28;20084;-54
2022/06/24 06:01:30;;;;;;;13.27;7.80;;;21.60;99.90;;;;;;5075722;28;20033;-56
2022/06/24 06:03:56;;;;;;;18.35;7.90;;;21.50;99.90;;;;;;5075650;28;20539;-55
2022/06/24 06:06:21;;;;;;;14.15;8.35;;;21.50;99.90;;;;;;5075379;28;20066;-54
2022/06/24 06:08:47;;;;;;;14.55;8.07;;;21.60;99.90;;;;;;5075286;28;20087;-55
2022/06/24 06:11:24;;;;;;;12.55;7.63;;;21.50;99.90;;;;;;5075136;28;20041;-54
2022/06/24 06:13:52;;;;;;;13.80;7.78;;;21.50;99.90;;;;;;5074897;28;20040;-55
2022/06/24 06:16:18;;;;;;;13.32;9.25;;;21.50;99.90;;;;;;5075276;28;20040;-55
2022/06/24 06:18:45;;;;;;;18.63;8.98;;;21.40;99.90;;;;;;5074785;28;20037;-55
2022/06/24 06:21:12;;;;;;;73.35;11.43;;;21.40;99.90;;;;;;5075186;28;20040;-55
2022/06/24 06:23:39;;;;;;;42.60;7.85;;;21.40;99.90;;;;;;5075176;28;20055;-55
2022/06/24 06:26:07;;;;;;;25.63;6.75;;;21.30;99.90;;;;;;5075035;28;20051;-54
2022/06/24 06:28:33;;;;;;;10.68;5.32;;;21.00;99.90;;;;;;5074726;28;20044;-56
2022/06/24 06:30:59;;;;;;;13.20;5.25;;;21.00;99.90;;;;;;5074935;28;20052;-55
2022/06/24 06:33:25;;;;;;;14.88;6.40;;;20.90;99.90;;;;;;5074985;28;20037;-55
2022/06/24 06:35:51;;;;;;;28.55;6.55;;;20.90;99.90;;;;;;5074913;28;20041;-54
2022/06/24 06:38:17;;;;;;;12.93;5.45;;;20.90;99.90;;;;;;5075081;28;20045;-54
2022/06/24 06:40:43;;;;;;;13.70;5.93;;;20.90;99.90;;;;;;5074785;28;20048;-55
2022/06/24 06:43:09;;;;;;;16.17;6.93;;;21.00;99.90;;;;;;5074516;28;20040;-55
2022/06/24 06:45:38;;;;;;;12.75;6.05;;;20.90;99.90;;;;;;5074693;28;20041;-55
2022/06/24 06:48:04;;;;;;;12.15;6.07;;;21.00;99.90;;;;;;5075258;28;20041;-55
2022/06/24 06:50:31;;;;;;;12.75;5.72;;;20.90;99.90;;;;;;5074350;28;20080;-55
2022/06/24 06:52:57;;;;;;;11.30;6.60;;;20.90;99.90;;;;;;5073568;28;20036;-55
2022/06/24 06:55:22;;;;;;;12.07;6.07;;;20.90;99.90;;;;;;5074769;28;20097;-56
2022/06/24 06:57:48;;;;;;;11.52;5.53;;;20.90;99.90;;;;;;5074470;28;20048;-55
2022/06/24 07:00:15;;;;;;;12.55;5.32;;;20.90;99.90;;;;;;5074243;28;20378;-55
2022/06/24 07:02:41;;;;;;;14.63;5.97;;;21.00;99.90;;;;;;5074431;28;20048;-55
2022/06/24 07:05:07;;;;;;;13.73;5.93;;;21.00;99.90;;;;;;5074214;28;20047;-55
2022/06/24 07:07:34;;;;;;;15.95;6.03;;;21.00;99.90;;;;;;5074065;28;20036;-55
2022/06/24 07:10:00;;;;;;;17.70;5.38;;;20.90;99.90;;;;;;5074228;28;20041;-56
2022/06/24 07:12:26;;;;;;;16.00;6.05;;;21.10;99.90;;;;;;5074000;28;20039;-55
2022/06/24 07:14:52;;;;;;;12.85;5.88;;;21.00;99.90;;;;;;5074414;28;20059;-55
2022/06/24 07:17:18;;;;;;;12.88;6.03;;;21.00;99.90;;;;;;5074063;28;20482;-55
2022/06/24 07:19:44;;;;;;;13.48;5.60;;;21.00;99.90;;;;;;5074026;28;20075;-55
2022/06/24 07:22:10;;;;;;;11.27;4.85;;;20.90;99.90;;;;;;5073007;28;20403;-55
2022/06/24 07:24:36;;;;;;;13.70;4.63;;;21.10;99.90;;;;;;5073877;28;20129;-56
2022/06/24 07:27:07;;;;;;;9.15;4.53;;;21.00;99.90;;;;;;5073822;28;20502;-55
2022/06/24 07:29:34;;;;;;;7.63;4.80;;;20.90;99.90;;;;;;5073569;28;20060;-56
2022/06/24 07:32:05;;;;;;;10.80;5.65;;;20.90;99.90;;;;;;5074002;28;20395;-55
2022/06/24 07:34:31;;;;;;;9.27;4.30;;;21.00;99.90;;;;;;5073967;28;20032;-55
2022/06/24 07:37:00;;;;;;;13.93;4.95;;;20.80;99.90;;;;;;5073531;28;20494;-55
2022/06/24 07:39:27;;;;;;;9.80;4.50;;;20.70;99.90;;;;;;5073763;28;20124;-55
2022/06/24 07:41:53;;;;;;;8.10;4.72;;;20.80;99.90;;;;;;5073786;28;20119;-55
2022/06/24 07:44:20;;;;;;;9.85;5.22;;;20.70;99.90;;;;;;5073611;28;20463;-55
2022/06/24 07:46:46;;;;;;;11.88;5.25;;;20.70;99.90;;;;;;5073644;28;20055;-56
2022/06/24 07:49:12;;;;;;;7.07;4.57;;;20.80;99.90;;;;;;5072964;28;20490;-55
2022/06/24 07:51:38;;;;;;;10.65;4.82;;;20.70;99.90;;;;;;5073387;28;20040;-55
2022/06/24 07:54:07;;;;;;;11.68;5.82;;;20.70;99.90;;;;;;5073152;28;20044;-56
2022/06/24 07:59:21;;;;;;;8.10;5.22;;;20.70;99.90;;;;;;5073396;28;20040;-55
2022/06/24 08:01:47;;;;;;;9.60;5.78;;;20.70;99.90;;;;;;5072987;28;20040;-55
2022/06/24 08:04:14;;;;;;;12.73;6.35;;;20.60;99.90;;;;;;5071847;28;20058;-55
2022/06/24 08:06:43;;;;;;;8.98;4.93;;;20.60;99.90;;;;;;5073224;28;20132;-55
2022/06/24 08:09:09;;;;;;;7.22;5.22;;;20.70;99.90;;;;;;5073077;28;20111;-55
2022/06/24 08:11:36;;;;;;;5.35;4.65;;;20.70;99.90;;;;;;5072672;28;20404;-55
2022/06/24 08:14:01;;;;;;;10.15;4.97;;;20.80;99.90;;;;;;5072873;28;20540;-55
2022/06/24 08:16:27;;;;;;;10.07;4.65;;;20.80;99.90;;;;;;5072807;28;20076;-55
2022/06/24 08:18:53;;;;;;;5.63;4.65;;;20.70;99.90;;;;;;5072772;28;20079;-55
2022/06/24 08:21:19;;;;;;;8.07;4.95;;;20.70;99.90;;;;;;5072409;28;20371;-55
2022/06/24 08:23:45;;;;;;;7.15;4.55;;;21.00;99.90;;;;;;5072906;28;20075;-55
2022/06/24 08:26:10;;;;;;;8.32;5.15;;;21.00;99.90;;;;;;5072657;28;20048;-56
2022/06/24 08:28:36;;;;;;;7.35;5.57;;;20.90;99.90;;;;;;5072523;28;20040;-56
2022/06/24 08:31:02;;;;;;;7.40;5.10;;;21.00;99.90;;;;;;5072774;28;20048;-55
2022/06/24 08:33:28;;;;;;;10.00;5.43;;;21.00;99.90;;;;;;5072435;28;20040;-56
2022/06/24 08:35:54;;;;;;;10.68;5.93;;;21.10;99.90;;;;;;5072439;28;20044;-55
2022/06/24 08:38:20;;;;;;;10.57;5.25;;;21.00;99.90;;;;;;5072669;28;20558;-55
2022/06/24 08:40:52;;;;;;;9.95;5.60;;;21.00;99.90;;;;;;5072519;28;20052;-55
2022/06/24 08:43:21;;;;;;;9.55;5.63;;;21.10;99.90;;;;;;5072302;28;20040;-55
2022/06/24 08:45:50;;;;;;;10.13;6.15;;;21.20;99.90;;;;;;5070954;28;20044;-55
2022/06/24 08:48:16;;;;;;;8.75;5.43;;;21.20;99.90;;;;;;5072070;28;20040;-55
2022/06/24 08:50:42;;;;;;;9.27;6.32;;;21.20;99.90;;;;;;5072166;28;20105;-55
2022/06/24 08:53:10;;;;;;;7.35;5.40;;;21.10;99.90;;;;;;5072174;28;20380;-54
2022/06/24 08:55:38;;;;;;;7.00;5.43;;;21.30;99.90;;;;;;5072342;28;20032;-55
2022/06/24 08:58:07;;;;;;;10.07;5.90;;;21.20;99.90;;;;;;5072008;28;20040;-55
2022/06/24 09:00:33;;;;;;;8.13;5.88;;;21.20;99.90;;;;;;5072192;28;20083;-55
2022/06/24 09:02:59;;;;;;;8.68;5.70;;;21.30;99.90;;;;;;5072272;28;20101;-55
2022/06/24 09:05:26;;;;;;;10.13;5.88;;;21.20;99.90;;;;;;5072088;28;20127;-55
2022/06/24 09:08:09;;;;;;;11.98;6.30;;;21.10;99.90;;;;;;5071987;28;20120;-54
2022/06/24 09:10:37;;;;;;;7.38;4.60;;;21.10;99.90;;;;;;5071858;28;20403;-55
2022/06/24 09:13:02;;;;;;;7.07;4.87;;;21.10;99.90;;;;;;5072102;28;20044;-55
2022/06/24 09:15:29;;;;;;;9.43;5.43;;;21.10;99.90;;;;;;5069679;28;20407;-57
2022/06/24 09:17:55;;;;;;;7.03;4.65;;;21.00;99.90;;;;;;5072151;28;20112;-55
2022/06/24 09:20:26;;;;;;;9.18;4.82;;;20.90;99.90;;;;;;5072376;28;20151;-55
2022/06/24 09:23:02;;;;;;;9.45;5.22;;;20.90;99.90;;;;;;5074038;28;20123;-55
2022/06/24 09:25:44;;;;;;;11.68;4.90;;;20.90;99.90;;;;;;5076456;28;20068;-56
2022/06/24 09:28:10;;;;;;;12.05;5.40;;;20.90;99.90;;;;;;5076014;28;20040;-55
2022/06/24 09:30:37;;;;;;;7.32;4.40;;;20.80;99.90;;;;;;5075924;28;20067;-55
2022/06/24 09:33:03;;;;;;;10.30;4.00;;;20.90;99.90;;;;;;5075943;28;20107;-56
2022/06/24 09:35:34;;;;;;;7.43;4.43;;;20.70;99.90;;;;;;5075704;28;20111;-57
2022/06/24 09:37:59;;;;;;;7.45;4.68;;;20.60;99.90;;;;;;5075843;28;20036;-55
2022/06/24 09:40:28;;;;;;;10.40;4.45;;;20.70;99.90;;;;;;5075825;28;20380;-57
2022/06/24 09:42:57;;;;;;;6.75;5.47;;;20.70;99.90;;;;;;5075885;28;20044;-56
2022/06/24 09:45:25;;;;;;;10.38;4.70;;;20.70;99.90;;;;;;5075975;28;20040;-56
2022/06/24 09:47:52;;;;;;;9.30;5.82;;;20.70;99.90;;;;;;5075873;28;20048;-57
2022/06/24 09:50:19;;;;;;;15.38;5.28;;;20.60;99.90;;;;;;5075488;28;20040;-56
2022/06/24 09:52:45;;;;;;;7.15;4.30;;;20.60;99.90;;;;;;5075234;28;20047;-57
2022/06/24 09:55:11;;;;;;;8.95;3.83;;;20.50;99.90;;;;;;5075733;28;20028;-56
2022/06/24 09:57:39;;;;;;;7.25;4.35;;;20.60;99.90;;;;;;5075549;28;20498;-56
2022/06/24 10:02:50;;;;;;;5.97;4.60;;;20.40;99.90;;;;;;5075216;28;20045;-56
2022/06/24 10:05:18;;;;;;;6.13;4.25;;;20.50;99.90;;;;;;5075384;28;20047;-56
2022/06/24 10:07:46;;;;;;;6.20;4.50;;;20.40;99.90;;;;;;5075266;28;20037;-56
2022/06/24 10:10:14;;;;;;;12.02;4.63;;;20.40;99.90;;;;;;5075107;28;20462;-56
2022/06/24 10:12:46;;;;;;;12.07;4.35;;;20.40;99.90;;;;;;5075242;28;20519;-55
2022/06/24 10:15:14;;;;;;;8.88;4.15;;;20.50;99.90;;;;;;5073666;28;20040;-56
2022/06/24 10:17:43;;;;;;;10.70;5.00;;;20.50;99.90;;;;;;5074917;28;20033;-56
2022/06/24 10:20:12;;;;;;;10.25;4.90;;;20.40;99.90;;;;;;5075043;28;20386;-56
2022/06/24 10:22:40;;;;;;;;;;;20.30;99.90;;;;;;5076140;28;20079;-56
2022/06/24 10:25:06;;;;;;;9.57;6.00;;;20.40;99.90;;;;;;5075044;28;20011;-55
2022/06/24 10:27:57;;;;;;;12.20;6.40;;;20.30;99.90;;;;;;5075230;28;20107;-55
2022/06/24 10:30:54;;;;;;;11.30;6.18;;;20.30;99.90;;;;;;5074506;28;20391;-55
2022/06/24 10:33:23;;;;;;;8.15;6.07;;;20.20;99.90;;;;;;5074356;28;20041;-55
2022/06/24 10:36:18;;;;;;;10.65;5.85;;;20.20;99.90;;;;;;5074501;28;20043;-55
2022/06/24 10:38:44;;;;;;;8.07;4.70;;;20.20;99.90;;;;;;5074496;28;20606;-56
2022/06/24 10:41:11;;;;;;;6.85;4.70;;;20.00;99.90;;;;;;5074806;28;20178;-55
2022/06/24 10:43:43;;;;;;;9.33;4.57;;;20.10;99.90;;;;;;5074721;28;20202;-55
2022/06/24 10:46:11;;;;;;;6.68;5.00;;;19.90;99.90;;;;;;5074752;28;20051;-55
2022/06/24 10:48:43;;;;;;;9.57;5.88;;;19.80;99.90;;;;;;5074445;28;20044;-55
2022/06/24 10:51:20;;;;;;;11.77;5.57;;;19.70;99.90;;;;;;5074383;28;20109;-56
2022/06/24 10:54:09;;;;;;;8.30;4.75;;;19.70;99.90;;;;;;5074614;28;20178;-56
2022/06/24 10:56:49;;;;;;;7.72;4.93;;;19.80;99.90;;;;;;5074627;28;20110;-56
2022/06/24 10:59:20;;;;;;;10.23;4.82;;;19.70;99.90;;;;;;5073243;28;20037;-55
2022/06/24 11:01:47;;;;;;;5.15;3.90;;;19.80;99.90;;;;;;5074491;28;20049;-56
2022/06/24 11:04:17;;;;;;;4.72;2.47;;;19.50;99.90;;;;;;5074352;28;20044;-56
2022/06/24 11:07:15;;;;;;;3.33;2.10;;;19.60;99.90;;;;;;5074528;28;20048;-56
2022/06/24 11:09:40;;;;;;;5.65;2.80;;;19.20;99.90;;;;;;5073987;28;20044;-56
2022/06/24 11:12:29;;;;;;;3.30;1.98;;;19.20;99.90;;;;;;5073959;28;20079;-56
2022/06/24 11:14:55;;;;;;;8.90;2.53;;;19.20;99.90;;;;;;5074002;28;20043;-56
2022/06/24 11:17:25;;;;;;;7.82;3.17;;;19.20;99.90;;;;;;5073964;28;20028;-56
2022/06/24 11:19:52;;;;;;;5.63;2.75;;;19.10;99.90;;;;;;5072710;28;20036;-55
2022/06/24 11:22:18;;;;;;;4.53;3.20;;;19.20;99.90;;;;;;5073710;28;20448;-55
2022/06/24 11:24:47;;;;;;;11.35;4.05;;;19.10;99.90;;;;;;5072786;28;20040;-56
2022/06/24 11:27:13;;;;;;;5.53;3.20;;;19.10;99.90;;;;;;5073950;28;20067;-56
2022/06/24 11:29:56;;;;;;;3.90;2.80;;;19.00;99.90;;;;;;5073948;28;20444;-56
2022/06/24 11:32:23;;;;;;;4.10;2.92;;;19.10;99.90;;;;;;5073843;28;20071;-56
2022/06/24 11:34:49;;;;;;;6.20;2.75;;;19.10;99.90;;;;;;5073307;28;20028;-55
2022/06/24 11:37:23;;;;;;;5.05;2.53;;;19.00;99.90;;;;;;5073453;28;20526;-56
2022/06/24 11:39:58;;;;;;;5.00;2.72;;;19.20;99.90;;;;;;5073691;28;20040;-56
2022/06/24 11:42:23;;;;;;;6.07;2.65;;;19.10;99.90;;;;;;5073487;28;20083;-56
2022/06/24 11:44:51;;;;;;;14.48;3.03;;;19.20;99.90;;;;;;5073238;28;20064;-56
2022/06/24 11:47:28;;;;;;;5.30;3.05;;;19.00;99.90;;;;;;5072632;28;20051;-56
2022/06/24 11:49:54;;;;;;;5.20;3.05;;;19.10;99.90;;;;;;5073448;28;20047;-56
2022/06/24 11:52:19;;;;;;;4.43;2.80;;;19.10;99.90;;;;;;5073341;28;20036;-56
2022/06/24 11:54:45;;;;;;;4.85;3.38;;;19.10;99.90;;;;;;5073175;28;20044;-56
2022/06/24 11:57:12;;;;;;;6.03;3.40;;;19.00;99.90;;;;;;5073072;28;20036;-56
2022/06/24 11:59:38;;;;;;;3.97;3.15;;;19.20;99.90;;;;;;5073412;28;20040;-56
2022/06/24 12:02:06;;;;;;;4.53;3.60;;;19.20;99.90;;;;;;5072191;28;20506;-56
2022/06/24 12:04:32;;;;;;;4.90;3.65;;;19.20;99.90;;;;;;5072926;28;20493;-56
2022/06/24 12:07:01;;;;;;;8.30;3.33;;;19.30;99.90;;;;;;5073039;28;20032;-56
2022/06/24 12:09:27;;;;;;;5.82;3.55;;;19.30;99.90;;;;;;5071851;28;20494;-56
2022/06/24 12:11:52;;;;;;;6.35;3.50;;;19.30;99.90;;;;;;5073201;28;20032;-56
2022/06/24 12:14:20;;;;;;;6.30;3.88;;;19.30;99.90;;;;;;5072684;28;20399;-56
2022/06/24 12:17:06;;;;;;;5.85;3.35;;;19.30;99.90;;;;;;5072853;28;20478;-56
2022/06/24 12:19:34;;;;;;;8.35;3.60;;;19.20;99.90;;;;;;5073144;28;20489;-55
2022/06/24 12:22:14;;;;;;;9.13;4.10;;;19.30;99.90;;;;;;5072960;28;20075;-56
2022/06/24 12:24:40;;;;;;;5.07;4.03;;;19.30;99.90;;;;;;5071393;28;20048;-56
2022/06/24 12:27:08;;;;;;;6.22;4.32;;;19.30;99.90;;;;;;5072746;28;20033;-56
2022/06/24 12:29:41;;;;;;;7.82;4.50;;;19.40;99.90;;;;;;5072358;28;20110;-56
2022/06/24 12:32:08;;;;;;;8.30;5.00;;;19.50;99.90;;;;;;5072894;28;20053;-56
2022/06/24 12:34:38;;;;;;;5.10;3.92;;;19.50;99.90;;;;;;5072412;28;20497;-56
2022/06/24 12:37:09;;;;;;;8.02;4.75;;;19.70;99.90;;;;;;5072419;28;20047;-56
2022/06/24 12:39:37;;;;;;;8.60;4.32;;;19.70;99.90;;;;;;5072317;28;20033;-56
2022/06/24 12:42:04;;;;;;;22.13;6.37;;;19.90;99.90;;;;;;5071232;28;20075;-56
2022/06/24 12:44:43;;;;;;;8.45;4.88;;;20.10;99.90;;;;;;5072308;28;20270;-56
2022/06/24 12:52:46;;;;;;;11.13;5.53;;;20.40;99.90;;;;;;5072445;28;20100;-56
2022/06/24 12:55:14;;;;;;;8.38;5.22;;;20.60;99.90;;;;;;5072763;28;20040;-56
2022/06/24 12:57:40;;;;;;;7.30;5.72;;;20.60;99.90;;;;;;5072177;28;20074;-56
2022/06/24 13:00:09;;;;;;;9.77;7.63;;;20.70;99.90;;;;;;5072387;28;20443;-56
2022/06/24 13:02:45;;;;;;;6.72;5.78;;;20.70;99.90;;;;;;5072814;28;20519;-56
2022/06/24 13:05:11;;;;;;;13.25;6.80;;;20.80;99.90;;;;;;5072355;28;20040;-56